Flight Track Log - Related Links

Times and Time Zones

All times are in EDT time to prevent confusion due to time zone crossing. See the SKW5517 flight status page for this flight to view local times or setup timezone preferences in your user account.

Time Position Orientation Groundspeed Altitude Reporting Facility
EDT Latitude Longitude Course Direction KTS MPH feet Rate Location/Type
Wed 05:44:40 PM 39.9167 -104.6833 North 172 198 6,500  Level Denver TRACON
Wed 05:45:40 PM 39.9667 -104.6500 27° Northeast 228 262 8,500 1,950 Climbing Denver TRACON
Wed 05:46:40 PM 40.0333 -104.6000 30° Northeast 270 311 10,400 2,350 Climbing Denver TRACON
Wed 05:47:40 PM 40.1000 -104.5500 30° Northeast 290 334 13,200 2,581 Climbing Denver TRACON
Wed 05:48:06 PM 40.1264 -104.5356 23° Northeast 291 335 14,100 2,562 Climbing Denver Center
Wed 05:49:09 PM 40.2078 -104.4806 27° Northeast 312 359 17,000 2,448 Climbing Denver Center
Wed 05:50:00 PM 40.2656 -104.5000 North  Level FlightAware Approximate
Wed 05:50:11 PM 40.2758 -104.4111 38° Northeast 313 360 19,200  Level Denver Center
Wed 05:51:13 PM 40.3600 -104.3561 26° Northeast 316 364 21,100 1,887 Climbing Denver Center
Wed 05:52:15 PM 40.4428 -104.3122 22° Northeast 322 371 23,100 1,790 Climbing Denver Center
Wed 05:53:17 PM 40.5339 -104.2597 24° Northeast 333 383 24,800 1,645 Climbing Denver Center
Wed 05:54:19 PM 40.6147 -104.1903 33° Northeast 345 397 26,500 1,210 Climbing Denver Center
Wed 05:55:21 PM 40.6892 -104.0914 45° Northeast 372 428 27,300 1,210 Climbing Denver Center
Wed 05:56:23 PM 40.7656 -103.9972 43° Northeast 369 425 29,000 1,306 Climbing Denver Center
Wed 05:57:25 PM 40.8458 -103.8947 44° Northeast 394 453 30,000 1,113 Climbing Denver Center
Wed 05:58:27 PM 40.9256 -103.7903 45° Northeast 400 460 31,300 1,143 Climbing Denver Center
Wed 05:59:31 PM 41.0244 -103.6625 44° Northeast 403 464 32,400 810 Climbing Denver Center
Wed 06:00:33 PM 41.1019 -103.5600 45° Northeast 410 472 33,000 290 Climbing Denver Center
Wed 06:01:35 PM 41.1819 -103.4558 44° Northeast 421 484 33,000  Level Denver Center
Wed 06:02:37 PM 41.2725 -103.3375 44° Northeast 411 473 33,000  Level Denver Center
Wed 06:03:39 PM 41.3539 -103.2306 45° Northeast 426 490 33,000  Level Denver Center
Wed 06:04:41 PM 41.4367 -103.0844 53° Northeast 452 520 33,000  Level Denver Center
Wed 06:05:43 PM 41.4975 -102.9439 60° Northeast 456 525 33,000  Level Denver Center
Wed 06:06:46 PM 41.5675 -102.7814 60° Northeast 454 522 33,000  Level Denver Center
Wed 06:07:48 PM 41.6267 -102.6419 60° Northeast 452 520 33,000  Level Denver Center
Wed 06:08:50 PM 41.6958 -102.4831 60° Northeast 449 517 33,000  Level Denver Center
Wed 06:09:52 PM 41.7553 -102.3419 61° Northeast 449 517 33,000  Level Denver Center
Wed 06:10:54 PM 41.8239 -102.1814 60° Northeast 448 516 33,000  Level Denver Center
Wed 06:11:56 PM 41.8811 -102.0450 61° Northeast 440 506 33,000  Level Denver Center
Wed 06:12:58 PM 41.9486 -101.8864 60° Northeast 439 505 33,000  Level Denver Center
Wed 06:14:00 PM 42.0064 -101.7481 61° Northeast 440 506 33,000  Level Denver Center
Wed 06:15:02 PM 42.0719 -101.5881 61° Northeast 438 504 33,000  Level Denver Center
Wed 06:16:04 PM 42.1308 -101.4492 60° Northeast 442 509 33,000  Level Denver Center
Wed 06:17:06 PM 42.1958 -101.2894 61° Northeast 438 504 33,000  Level Denver Center
Wed 06:18:08 PM 42.2525 -101.1511 61° Northeast 440 506 33,000  Level Denver Center
Wed 06:19:10 PM 42.3181 -100.9914 61° Northeast 436 502 33,000  Level Denver Center
Wed 06:20:12 PM 42.3739 -100.8533 61° Northeast 435 501 33,000  Level Denver Center
Wed 06:21:14 PM 42.4292 -100.7147 62° Northeast 436 502 33,000  Level Denver Center
Wed 06:22:16 PM 42.4939 -100.5558 61° Northeast 433 498 33,000  Level Denver Center
Wed 06:23:18 PM 42.5475 -100.4169 62° Northeast 433 498 33,000  Level Denver Center
Wed 06:24:20 PM 42.6111 -100.2539 62° Northeast 436 502 33,000  Level Denver Center
Wed 06:25:22 PM 42.6661 -100.1186 61° Northeast 432 497 33,000  Level Denver Center
Wed 06:26:24 PM 42.7222 -99.9767 62° Northeast 430 495 33,000  Level Denver Center
Wed 06:27:27 PM 42.7783 -99.8339 62° Northeast 429 494 33,000  Level Denver Center
Wed 06:28:29 PM 42.8450 -99.6628 62° Northeast 427 491 33,000  Level Denver Center
Wed 06:28:59 PM 42.8686 -99.6014 62° Northeast 429 494 33,000  Level Minneapolis Center
Wed 06:30:01 PM 42.9239 -99.4572 62° Northeast 428 493 33,000  Level Minneapolis Center
Wed 06:31:03 PM 42.9792 -99.3133 62° Northeast 427 491 33,000  Level Minneapolis Center
Wed 06:32:05 PM 43.0342 -99.1683 63° Northeast 429 494 33,000  Level Minneapolis Center
Wed 06:33:07 PM 43.1000 -98.9958 62° Northeast 427 491 33,000  Level Minneapolis Center
Wed 06:34:09 PM 43.1500 -98.8642 62° Northeast 426 490 33,000  Level Minneapolis Center
Wed 06:35:11 PM 43.2036 -98.7206 63° Northeast 425 489 33,000  Level Minneapolis Center
Wed 06:36:13 PM 43.2572 -98.5769 63° Northeast 424 488 33,000  Level Minneapolis Center
Wed 06:37:16 PM 43.3214 -98.4056 63° Northeast 422 486 33,000  Level Minneapolis Center
Wed 06:38:18 PM 43.3756 -98.2614 63° Northeast 425 489 33,000  Level Minneapolis Center
Wed 06:39:20 PM 43.4286 -98.1164 63° Northeast 425 489 33,000  Level Minneapolis Center
Wed 06:40:22 PM 43.4814 -97.9711 63° Northeast 425 489 33,000  Level Minneapolis Center
Wed 06:41:24 PM 43.5347 -97.8247 63° Northeast 427 491 33,000  Level Minneapolis Center
Wed 06:42:26 PM 43.5989 -97.6494 63° Northeast 429 494 33,000  Level Minneapolis Center
Wed 06:43:28 PM 43.6525 -97.5003 64° Northeast 433 498 33,000  Level Minneapolis Center
Wed 06:44:30 PM 43.7075 -97.3467 64° Northeast 444 511 33,000  Level Minneapolis Center
Wed 06:45:32 PM 43.7617 -97.1931 64° Northeast 445 512 33,000  Level Minneapolis Center
Wed 06:46:34 PM 43.8536 -97.1219 29° Northeast 389 448 33,000  Level Minneapolis Center
Wed 06:47:36 PM 43.9567 -97.0939 11° North 377 434 33,000 -435 Level Minneapolis Center
Wed 06:48:38 PM 44.0794 -97.0583 12° North 375 432 32,100 -919 Descending Minneapolis Center
Wed 06:49:40 PM 44.1764 -97.0292 12° North 362 417 31,100 -532 Descending Minneapolis Center
Wed 06:50:42 PM 44.2725 -97.0008 12° North 354 407 31,000 -48 Descending Minneapolis Center
Wed 06:51:45 PM 44.3697 -96.9703 13° North 355 409 31,000  Level Minneapolis Center
Wed 06:52:47 PM 44.4672 -96.9414 12° North 356 410 31,000  Level Minneapolis Center
Wed 06:53:49 PM 44.5642 -96.9128 12° North 355 409 31,000  Level Minneapolis Center
Wed 06:55:03 PM 44.6156 -96.7928 59° Northeast 395 455 31,000  Level Minneapolis Center
Wed 06:56:05 PM 44.4914 -96.6506 141° Southeast 439 505 31,000  Level Minneapolis Center
Wed 06:57:07 PM 44.3758 -96.5919 160° South 444 511 31,000 -242 Level Minneapolis Center
Wed 06:58:09 PM 44.2608 -96.5347 160° South 444 511 30,500 -726 Descending Minneapolis Center
Wed 06:59:11 PM 44.1517 -96.4775 159° South 433 498 29,500 -1,065 Descending Minneapolis Center
Wed 07:00:13 PM 44.0283 -96.4031 157° South 417 480 28,300 -968 Descending Minneapolis Center
Wed 07:01:15 PM 43.9875 -96.2889 116° Southeast 426 490 27,500 -912 Descending Minneapolis Center
Wed 07:02:18 PM 44.0372 -96.1211 68° East 403 464 26,400 -720 Descending Minneapolis Center
Wed 07:03:20 PM 44.0942 -95.9939 58° Northeast 398 458 26,000 -581 Descending Minneapolis Center
Wed 07:04:22 PM 44.1617 -95.8378 59° Northeast 398 458 25,200 -968 Descending Minneapolis Center
Wed 07:05:24 PM 44.2175 -95.7125 58° Northeast 392 451 24,000 -1,161 Descending Minneapolis Center
Wed 07:06:26 PM 44.2703 -95.5914 59° Northeast 381 438 22,800 -1,073 Descending Minneapolis Center
Wed 07:07:27 PM 44.3133 -95.4917 59° Northeast 377 434 21,800 -794 Descending Minneapolis Center
Wed 07:08:42 PM 44.3767 -95.3436 59° Northeast 374 430 21,000 -350 Descending Minneapolis Center
Wed 07:09:44 PM 44.4497 -95.1761 59° Northeast 367 422 21,000  Level Minneapolis Center
Wed 07:10:46 PM 44.4928 -95.0469 65° Northeast 366 421 21,000  Level Minneapolis Center
Wed 07:11:49 PM 44.5208 -94.9078 74° East 369 425 21,000 -864 Level Minneapolis Center
Wed 07:12:51 PM 44.5519 -94.7731 72° East 368 423 19,200 -1,694 Descending Minneapolis Center
Wed 07:13:53 PM 44.5831 -94.6397 72° East 365 420 17,500 -1,860 Descending Minneapolis Center
Wed 07:15:00 PM 44.6253 -94.4861 69° East 341 392 15,200 -1,953 Descending FAA TRACON SMA TRACON (SMA)
Wed 07:15:19 PM 44.6319 -94.4469 77° East 337 388 14,700 -1,800 Descending FAA TRACON SMA TRACON (SMA)
Wed 07:15:40 PM 44.6436 -94.3997 71° East 332 382 14,000 -1,756 Descending FAA TRACON SMA TRACON (SMA)
Wed 07:16:00 PM 44.6519 -94.3603 73° East 339 390 13,500 -1,800 Descending FAA TRACON SMA TRACON (SMA)
Wed 07:16:20 PM 44.6639 -94.3089 72° East 357 411 12,800 -1,800 Descending FAA TRACON SMA TRACON (SMA)
Wed 07:16:40 PM 44.6731 -94.2658 73° East 370 426 12,300 -1,538 Descending FAA TRACON SMA TRACON (SMA)
Wed 07:16:59 PM 44.6822 -94.2219 74° East 379 436 11,800 -1,500 Descending FAA TRACON SMA TRACON (SMA)
Wed 07:17:20 PM 44.6917 -94.1778 73° East 382 440 11,300 -1,171 Descending FAA TRACON SMA TRACON (SMA)
Wed 07:17:40 PM 44.7042 -94.1233 72° East 382 440 11,000 -600 Descending FAA TRACON SMA TRACON (SMA)
Wed 07:18:00 PM 44.7131 -94.0800 74° East 376 433 10,900 -150 Descending FAA TRACON SMA TRACON (SMA)
Wed 07:18:20 PM 44.7253 -94.0264 72° East 374 430 10,900  Level FAA TRACON SMA TRACON (SMA)
Wed 07:18:40 PM 44.7350 -93.9842 72° East 372 428 10,900  Level FAA TRACON SMA TRACON (SMA)
Wed 07:19:00 PM 44.7436 -93.9414 74° East 370 426 10,900  Level FAA TRACON SMA TRACON (SMA)
Wed 07:19:20 PM 44.7528 -93.8986 73° East 369 425 10,900  Level FAA TRACON SMA TRACON (SMA)
Wed 07:19:40 PM 44.7650 -93.8458 72° East 370 426 10,900  Level FAA TRACON SMA TRACON (SMA)
Wed 07:20:00 PM 44.7739 -93.8022 74° East 375 432 10,900  Level FAA TRACON SMA TRACON (SMA)
Wed 07:20:19 PM 44.7833 -93.7589 73° East 377 434 10,900  Level FAA TRACON SMA TRACON (SMA)
Wed 07:20:40 PM 44.7956 -93.7042 73° East 383 441 10,900  Level FAA TRACON SMA TRACON (SMA)
Wed 07:21:00 PM 44.8050 -93.6597 73° East 385 443 10,900  Level FAA TRACON SMA TRACON (SMA)
Wed 07:21:40 PM 44.8272 -93.5600 73° East 385 443 10,900  Level FAA TRACON SMA TRACON (SMA)
Wed 07:22:00 PM 44.8367 -93.5158 73° East 384 442 10,900  Level FAA TRACON SMA TRACON (SMA)
Wed 07:22:20 PM 44.8486 -93.4617 73° East 377 434 10,900 -300 Level FAA TRACON SMA TRACON (SMA)
Wed 07:22:40 PM 44.8572 -93.4214 73° East 357 411 10,700 -450 Descending FAA TRACON SMA TRACON (SMA)
Wed 07:23:00 PM 44.8572 -93.3825 90° East 340 391 10,600 -450 Descending FAA TRACON SMA TRACON (SMA)
Wed 07:23:20 PM 44.8419 -93.3422 118° Southeast 309 356 10,400 -600 Descending FAA TRACON SMA TRACON (SMA)
Wed 07:23:40 PM 44.8275 -93.3147 127° Southeast 288 331 10,200 -462 Descending FAA TRACON SMA TRACON (SMA)
Wed 07:23:59 PM 44.8139 -93.2869 125° Southeast 278 320 10,100 -900 Descending FAA TRACON SMA TRACON (SMA)
Wed 07:24:20 PM 44.7986 -93.2528 122° Southeast 269 310 9,600 -1,317 Descending FAA TRACON SMA TRACON (SMA)
Wed 07:24:40 PM 44.7869 -93.2258 121° Southeast 263 303 9,200 -1,050 Descending FAA TRACON SMA TRACON (SMA)
Wed 07:25:00 PM 44.7750 -93.1992 122° Southeast 261 300 8,900 -1,119 Descending FAA TRACON SMA TRACON (SMA)
Wed 07:25:39 PM 44.7475 -93.1411 124° Southeast 258 297 8,100 -1,100 Descending FAA TRACON SMA TRACON (SMA)
Wed 07:26:00 PM 44.7350 -93.1161 125° Southeast 252 290 7,800 -732 Descending FAA TRACON SMA TRACON (SMA)
Wed 07:26:20 PM 44.7206 -93.0883 126° Southeast 233 268 7,600 -600 Descending FAA TRACON SMA TRACON (SMA)
Wed 07:26:40 PM 44.7094 -93.0669 126° Southeast 221 254 7,400 -750 Descending FAA TRACON SMA TRACON (SMA)
Wed 07:27:00 PM 44.6986 -93.0469 127° Southeast 211 243 7,100 -750 Descending FAA TRACON SMA TRACON (SMA)
Wed 07:27:20 PM 44.6856 -93.0208 125° Southeast 212 244 6,900 -600 Descending FAA TRACON SMA TRACON (SMA)
Wed 07:27:40 PM 44.6844 -92.9942 93° East 223 257 6,700 -600 Descending FAA TRACON SMA TRACON (SMA)
Wed 07:28:00 PM 44.6936 -92.9717 60° Northeast 232 267 6,500 -750 Descending FAA TRACON SMA TRACON (SMA)
Wed 07:28:20 PM 44.7103 -92.9489 44° Northeast 227 261 6,200 -1,077 Descending FAA TRACON SMA TRACON (SMA)
Wed 07:28:39 PM 44.7203 -92.9253 59° Northeast 226 260 5,800 -1,350 Descending FAA TRACON SMA TRACON (SMA)
Wed 07:29:00 PM 44.7372 -92.9131 27° Northeast 237 273 5,300 -1,317 Descending FAA TRACON SMA TRACON (SMA)
Wed 07:29:20 PM 44.7564 -92.9242 338° Northwest 220 253 4,900 -600 Descending FAA TRACON SMA TRACON (SMA)
Wed 07:29:40 PM 44.7650 -92.9419 304° West 186 214 4,900  Level FAA TRACON SMA TRACON (SMA)
Wed 07:30:00 PM 44.7728 -92.9647 296° West 169 194 4,900 -450 Level FAA TRACON SMA TRACON (SMA)
Wed 07:30:20 PM 44.7794 -92.9831 297° West 168 193 4,600 -900 Descending FAA TRACON SMA TRACON (SMA)
Wed 07:30:40 PM 44.7861 -93.0014 297° West 171 197 4,300 -1,050 Descending FAA TRACON SMA TRACON (SMA)
Wed 07:31:00 PM 44.7933 -93.0183 301° West 167 192 3,900 -1,050 Descending FAA TRACON SMA TRACON (SMA)
Wed 07:31:20 PM 44.8025 -93.0375 304° West 155 178 3,600 -900 Descending FAA TRACON SMA TRACON (SMA)
Wed 07:31:40 PM 44.8094 -93.0525 303° West 149 171 3,300 -769 Descending FAA TRACON SMA TRACON (SMA)
Wed 07:31:59 PM 44.8164 -93.0681 302° West 151 174 3,100 -769 Descending FAA TRACON SMA TRACON (SMA)
Wed 07:32:19 PM 44.8242 -93.0864 301° West 143 165 2,800 -878 Descending FAA TRACON SMA TRACON (SMA)
Wed 07:32:40 PM 44.8297 -93.1000 300° West 133 153 2,500 -732 Descending FAA TRACON SMA TRACON (SMA)
Wed 07:33:00 PM 44.8353 -93.1131 301° West 128 147 2,300 -750 Descending FAA TRACON SMA TRACON (SMA)
Wed 07:33:20 PM 44.8422 -93.1294 301° West 126 145 2,000 -750 Descending FAA TRACON SMA TRACON (SMA)
Wed 07:33:40 PM 44.8478 -93.1425 301° West 124 143 1,800 -600 Descending FAA TRACON SMA TRACON (SMA)
Wed 07:34:00 PM 44.8533 -93.1550 302° West 123 142 1,600 -769 Descending FAA TRACON SMA TRACON (SMA)
Wed 07:34:19 PM 44.8600 -93.1703 302° West 120 138 1,300 -750 Descending FAA TRACON SMA TRACON (SMA)
Wed 07:34:40 PM 44.8653 -93.1828 301° West 120 138 1,100 -450 Descending FAA TRACON SMA TRACON (SMA)
Wed 07:34:59 PM 44.8694 -93.1919 303° West 121 139 1,000 -316 Descending FAA TRACON SMA TRACON (SMA)
Wed 07:36:00 PM 44.8667 -93.2167 316° Northwest  Level FlightAware Approximate
Wed 07:43:00 PM 44.8820 -93.2218 316° Northwest  Level Estimated

Login

Don't have an account? Register now (free) for customized features, flight alerts, and more!